Time;durP1;ratioP1;P1;durP2;ratioP2;P2;SDS_P1;SDS_P2;PMS_P1;PMS_P2;Temp;Humidity;BMP_temperature;BMP_pressure;BME280_temperature;BME280_humidity;BME280_pressure;Samples;Min_cycle;Max_cycle;Signal;HPM_P1;HPM_P2
2021/07/01 00:00:40;;;;;;;8.23;6.93;;;17.20;99.90;;;;;;5070517;28;20029;-67
2021/07/01 00:03:05;;;;;;;8.80;6.88;;;17.20;99.90;;;;;;5070537;28;20450;-66
2021/07/01 00:05:31;;;;;;;9.13;6.75;;;17.30;99.90;;;;;;5071486;28;20480;-66
2021/07/01 00:07:57;;;;;;;9.50;6.32;;;17.20;99.90;;;;;;5069916;28;20060;-66
2021/07/01 00:10:25;;;;;;;7.70;6.90;;;17.20;99.90;;;;;;5070708;28;20369;-67
2021/07/01 00:12:52;;;;;;;12.27;6.65;;;17.20;99.90;;;;;;5070018;28;20067;-67
2021/07/01 00:15:25;;;;;;;10.07;7.35;;;17.10;99.90;;;;;;5069751;28;20032;-67
2021/07/01 00:17:52;;;;;;;8.23;6.53;;;17.10;99.90;;;;;;5071870;28;20050;-66
2021/07/01 00:20:18;;;;;;;7.97;6.20;;;17.10;99.90;;;;;;5070853;28;20020;-65
2021/07/01 00:22:44;;;;;;;7.28;5.85;;;17.00;99.90;;;;;;5069949;28;20114;-66
2021/07/01 00:25:12;;;;;;;8.18;6.50;;;17.00;99.90;;;;;;5069407;28;20028;-66
2021/07/01 00:27:37;;;;;;;8.68;6.00;;;17.00;99.90;;;;;;5071529;28;20346;-65
2021/07/01 00:30:05;;;;;;;12.95;6.50;;;17.00;99.90;;;;;;5071523;28;20133;-66
2021/07/01 00:32:31;;;;;;;9.82;6.38;;;17.00;99.90;;;;;;5070868;28;20030;-66
2021/07/01 00:34:57;;;;;;;6.97;6.28;;;17.00;99.90;;;;;;5071418;28;20025;-66
2021/07/01 00:37:22;;;;;;;9.30;5.82;;;16.90;99.90;;;;;;5071088;28;20382;-66
2021/07/01 00:39:48;;;;;;;8.23;6.68;;;16.90;99.90;;;;;;5071499;28;20023;-66
2021/07/01 00:42:14;;;;;;;7.55;5.43;;;16.90;99.90;;;;;;5068727;28;20027;-66
2021/07/01 00:44:39;;;;;;;6.45;5.68;;;16.90;99.90;;;;;;5071325;28;20039;-68
2021/07/01 00:47:05;;;;;;;10.23;6.75;;;17.00;99.90;;;;;;5071071;28;20032;-66
2021/07/01 00:49:30;;;;;;;7.45;5.90;;;16.90;99.90;;;;;;5069394;28;20524;-67
2021/07/01 00:51:56;;;;;;;9.18;6.43;;;16.90;99.90;;;;;;5069678;28;20056;-66
2021/07/01 00:54:22;;;;;;;7.53;5.57;;;16.90;99.90;;;;;;5069134;28;20037;-66
2021/07/01 00:56:48;;;;;;;6.28;5.50;;;16.90;99.90;;;;;;5070166;28;20052;-66
2021/07/01 00:59:14;;;;;;;6.55;4.97;;;16.90;99.90;;;;;;5070766;28;20441;-68
2021/07/01 01:01:40;;;;;;;5.88;4.15;;;16.90;99.90;;;;;;5071075;28;20425;-66
2021/07/01 01:04:06;;;;;;;5.18;4.68;;;16.90;99.90;;;;;;5069782;28;20028;-67
2021/07/01 01:06:32;;;;;;;7.07;5.45;;;16.90;99.90;;;;;;5069273;28;20123;-65
2021/07/01 01:08:59;;;;;;;6.75;4.72;;;16.90;99.90;;;;;;5070011;28;20054;-66
2021/07/01 01:11:27;;;;;;;6.63;5.35;;;16.90;99.90;;;;;;5070610;28;20025;-67
2021/07/01 01:13:54;;;;;;;5.32;4.53;;;16.80;99.90;;;;;;5069800;28;20028;-66
2021/07/01 01:16:19;;;;;;;6.35;4.30;;;16.90;99.90;;;;;;5069133;28;20029;-67
2021/07/01 01:18:46;;;;;;;7.60;4.20;;;16.90;99.90;;;;;;5069644;28;20027;-66
2021/07/01 01:21:17;;;;;;;4.80;4.05;;;16.90;99.90;;;;;;5064340;28;20127;-73
2021/07/01 01:23:43;;;;;;;7.97;3.72;;;16.80;99.90;;;;;;5033113;28;20040;-67
2021/07/01 01:26:09;;;;;;;4.75;3.75;;;16.80;99.90;;;;;;5033197;28;20418;-65
2021/07/01 01:28:36;;;;;;;4.65;3.72;;;16.80;99.90;;;;;;5032407;28;20025;-66
2021/07/01 01:31:03;;;;;;;3.95;3.47;;;16.80;99.90;;;;;;5032796;28;20040;-65
2021/07/01 01:33:28;;;;;;;5.43;3.80;;;16.80;99.90;;;;;;5032292;28;20035;-65
2021/07/01 01:35:54;;;;;;;4.53;3.13;;;16.80;99.90;;;;;;5050761;28;20107;-65
2021/07/01 01:38:21;;;;;;;7.43;3.50;;;16.80;99.90;;;;;;5050686;28;20029;-67
2021/07/01 01:40:50;;;;;;;6.10;3.85;;;16.80;99.90;;;;;;5033118;28;20158;-65
2021/07/01 01:43:17;;;;;;;7.18;3.17;;;16.80;99.90;;;;;;5032273;28;20025;-66
2021/07/01 01:45:44;;;;;;;3.25;2.85;;;16.80;99.90;;;;;;5051196;28;20033;-66
2021/07/01 01:48:10;;;;;;;3.08;2.65;;;16.80;99.90;;;;;;5032932;28;20025;-66
2021/07/01 01:50:36;;;;;;;3.67;3.05;;;16.70;99.90;;;;;;5032072;28;20083;-67
2021/07/01 01:53:02;;;;;;;3.28;2.40;;;16.80;99.90;;;;;;5032826;28;20029;-65
2021/07/01 01:55:28;;;;;;;2.88;2.58;;;16.80;99.90;;;;;;5035741;28;20031;-66
2021/07/01 01:57:54;;;;;;;4.78;2.30;;;16.70;99.90;;;;;;5054273;28;20013;-66
2021/07/01 02:00:22;;;;;;;2.20;1.98;;;16.80;99.90;;;;;;5053677;28;20068;-66
2021/07/01 02:02:48;;;;;;;4.00;1.67;;;16.70;99.90;;;;;;5036281;28;20124;-66
2021/07/01 02:05:15;;;;;;;4.97;1.70;;;16.70;99.90;;;;;;5035839;28;20139;-72
2021/07/01 02:07:41;;;;;;;2.03;1.80;;;16.70;99.90;;;;;;5036251;28;20029;-66
2021/07/01 02:10:10;;;;;;;5.65;1.85;;;16.70;99.90;;;;;;5036260;28;20056;-66
2021/07/01 02:12:36;;;;;;;1.98;1.77;;;16.70;99.90;;;;;;5035700;28;20095;-67
2021/07/01 02:15:08;;;;;;;3.83;1.25;;;16.70;99.90;;;;;;5036166;28;20079;-66
2021/07/01 02:17:35;;;;;;;3.05;1.40;;;16.70;99.90;;;;;;5053372;28;20029;-67
2021/07/01 02:20:14;;;;;;;4.35;1.60;;;16.70;99.90;;;;;;5053391;28;20036;-67
2021/07/01 02:22:40;;;;;;;1.73;1.17;;;16.80;99.90;;;;;;5067665;28;20044;-66
2021/07/01 02:25:07;;;;;;;1.92;1.20;;;16.70;99.90;;;;;;5073144;28;20064;-66
2021/07/01 02:27:33;;;;;;;3.20;1.10;;;16.70;99.90;;;;;;5074288;28;20032;-67
2021/07/01 02:30:00;;;;;;;1.67;1.45;;;16.70;99.90;;;;;;5073862;28;20117;-67
2021/07/01 02:32:26;;;;;;;1.42;1.17;;;16.70;99.90;;;;;;5071743;28;20078;-67
2021/07/01 02:34:52;;;;;;;5.05;1.60;;;16.70;99.90;;;;;;5073491;28;20055;-67
2021/07/01 02:37:19;;;;;;;1.77;1.42;;;16.70;99.90;;;;;;5072950;28;20040;-66
2021/07/01 02:39:45;;;;;;;1.75;1.40;;;16.80;99.90;;;;;;5073611;28;20418;-66
2021/07/01 02:42:11;;;;;;;1.98;1.52;;;16.70;99.90;;;;;;5073584;28;20520;-66
2021/07/01 02:44:37;;;;;;;2.70;1.83;;;16.70;99.90;;;;;;5071549;28;20391;-66
2021/07/01 02:47:03;;;;;;;3.42;2.35;;;16.60;99.90;;;;;;5071924;28;20390;-66
2021/07/01 02:49:29;;;;;;;2.65;2.03;;;16.70;99.90;;;;;;5072979;28;20036;-66
2021/07/01 02:51:55;;;;;;;2.53;2.03;;;16.60;99.90;;;;;;5072982;28;20085;-65
2021/07/01 02:54:21;;;;;;;3.70;2.50;;;16.60;99.90;;;;;;5071160;28;20042;-66
2021/07/01 02:56:48;;;;;;;3.05;2.53;;;16.60;99.90;;;;;;5071815;28;20024;-66
2021/07/01 02:59:15;;;;;;;3.17;2.22;;;16.60;99.90;;;;;;5071965;28;20029;-66
2021/07/01 03:01:47;;;;;;;4.43;2.38;;;16.60;99.90;;;;;;5071073;28;20513;-65
2021/07/01 03:04:13;;;;;;;3.83;2.50;;;16.60;99.90;;;;;;5073073;28;20033;-66
2021/07/01 03:06:39;;;;;;;3.88;2.75;;;16.60;99.90;;;;;;5070582;28;20028;-66
2021/07/01 03:09:05;;;;;;;3.42;3.00;;;16.50;99.90;;;;;;5071600;28;20055;-66
2021/07/01 03:11:31;;;;;;;5.25;2.83;;;16.50;99.90;;;;;;5071136;28;20496;-66
2021/07/01 03:13:57;;;;;;;4.68;3.30;;;16.50;99.90;;;;;;5072850;28;20028;-67
2021/07/01 03:16:23;;;;;;;5.18;3.58;;;16.50;99.90;;;;;;5071002;28;20035;-67
2021/07/01 03:18:50;;;;;;;3.97;3.20;;;16.50;99.90;;;;;;5072580;28;20389;-66
2021/07/01 03:21:18;;;;;;;4.97;4.13;;;16.50;99.90;;;;;;5071089;28;20076;-67
2021/07/01 03:23:45;;;;;;;7.07;5.15;;;16.40;99.90;;;;;;5071753;28;20037;-67
2021/07/01 03:26:11;;;;;;;11.35;5.75;;;16.40;99.90;;;;;;5072744;28;20029;-65
2021/07/01 03:28:37;;;;;;;7.00;6.05;;;16.30;99.90;;;;;;5070640;28;20111;-66
2021/07/01 03:31:05;;;;;;;8.02;6.72;;;16.30;99.90;;;;;;5070867;28;20056;-65
2021/07/01 03:33:31;;;;;;;10.55;7.90;;;16.40;99.90;;;;;;5071658;28;20029;-65
2021/07/01 03:35:57;;;;;;;8.60;7.68;;;16.30;99.90;;;;;;5072428;28;20023;-66
2021/07/01 03:38:23;;;;;;;12.13;8.93;;;16.20;99.90;;;;;;5070567;28;20028;-65
2021/07/01 03:40:49;;;;;;;11.50;8.85;;;16.20;99.90;;;;;;5071094;28;20033;-65
2021/07/01 03:43:14;;;;;;;9.77;8.80;;;16.30;99.90;;;;;;5070815;28;20020;-66
2021/07/01 03:45:40;;;;;;;11.25;9.68;;;16.20;99.90;;;;;;5071346;28;20356;-66
2021/07/01 03:48:06;;;;;;;12.30;8.95;;;16.20;99.90;;;;;;5070732;28;20020;-66
2021/07/01 03:50:32;;;;;;;11.98;8.93;;;16.20;99.90;;;;;;5070046;28;20031;-66
2021/07/01 03:52:58;;;;;;;13.50;9.60;;;16.30;99.90;;;;;;5072245;28;20028;-65
2021/07/01 03:55:23;;;;;;;13.63;9.20;;;16.30;99.90;;;;;;5069649;28;20469;-66
2021/07/01 03:57:49;;;;;;;12.85;10.00;;;16.20;99.90;;;;;;5070382;28;20020;-65
2021/07/01 04:00:15;;;;;;;11.68;9.63;;;16.20;99.90;;;;;;5070434;28;20078;-65
2021/07/01 04:02:41;;;;;;;14.00;10.05;;;16.30;99.90;;;;;;5069813;28;20025;-67
2021/07/01 04:05:08;;;;;;;13.32;10.10;;;16.20;99.90;;;;;;5071379;28;20038;-66
2021/07/01 04:07:33;;;;;;;9.27;8.30;;;16.30;99.90;;;;;;5069490;28;20032;-67
2021/07/01 04:10:04;;;;;;;12.00;9.63;;;16.30;99.90;;;;;;5070548;28;20107;-66
2021/07/01 04:12:30;;;;;;;8.10;7.20;;;16.30;99.90;;;;;;5069884;28;20105;-67
2021/07/01 04:14:56;;;;;;;8.30;7.28;;;16.40;99.90;;;;;;5071708;28;20358;-66
2021/07/01 04:17:22;;;;;;;12.20;7.40;;;16.30;99.90;;;;;;5069152;28;20434;-65
2021/07/01 04:19:48;;;;;;;8.55;7.28;;;16.30;99.90;;;;;;5070211;28;20025;-66
2021/07/01 04:22:13;;;;;;;7.32;6.63;;;16.40;99.90;;;;;;5057204;28;20060;-67
2021/07/01 04:24:39;;;;;;;12.27;7.13;;;16.40;99.90;;;;;;5050820;28;20490;-66
2021/07/01 04:27:05;;;;;;;9.15;7.57;;;16.30;99.90;;;;;;5033838;28;20470;-66
2021/07/01 04:29:31;;;;;;;9.25;6.70;;;16.20;99.90;;;;;;5051019;28;20032;-67
2021/07/01 04:31:56;;;;;;;9.35;7.30;;;16.20;99.90;;;;;;5051139;28;20029;-66
2021/07/01 04:34:22;;;;;;;10.82;6.43;;;16.30;99.90;;;;;;5051341;28;20021;-66
2021/07/01 04:36:48;;;;;;;6.70;5.50;;;16.30;99.90;;;;;;5032481;28;20087;-66
2021/07/01 04:39:13;;;;;;;9.63;6.95;;;16.30;99.90;;;;;;5033425;28;20098;-67
2021/07/01 04:41:39;;;;;;;7.22;5.32;;;16.40;99.90;;;;;;5032704;28;20025;-67
2021/07/01 04:44:05;;;;;;;9.65;5.75;;;16.40;99.90;;;;;;5033221;28;20025;-66
2021/07/01 04:46:31;;;;;;;8.77;5.30;;;16.40;99.90;;;;;;5050271;28;20025;-67
2021/07/01 04:48:58;;;;;;;8.45;5.75;;;16.50;99.90;;;;;;5033340;28;20025;-67
2021/07/01 04:51:24;;;;;;;6.40;5.28;;;16.40;99.90;;;;;;5050640;28;20052;-66
2021/07/01 04:53:50;;;;;;;5.25;4.70;;;16.40;99.90;;;;;;5033423;28;20033;-67
2021/07/01 04:56:16;;;;;;;7.32;4.65;;;16.40;99.90;;;;;;5033235;28;20025;-66
2021/07/01 04:58:41;;;;;;;7.53;5.22;;;16.40;99.90;;;;;;5032501;28;20478;-66
2021/07/01 05:01:07;;;;;;;8.80;4.97;;;16.40;99.90;;;;;;5033559;28;20025;-66
2021/07/01 05:03:33;;;;;;;7.82;4.85;;;16.30;99.90;;;;;;5050450;28;20048;-66
2021/07/01 05:05:58;;;;;;;7.68;4.05;;;16.40;99.90;;;;;;5051455;28;20126;-66
2021/07/01 05:08:24;;;;;;;7.30;4.32;;;16.40;99.90;;;;;;5033503;28;20033;-68
2021/07/01 05:10:50;;;;;;;6.25;4.75;;;16.50;99.90;;;;;;5032170;28;20144;-67
2021/07/01 05:13:15;;;;;;;9.13;4.50;;;16.40;99.90;;;;;;5044242;28;20028;-67
2021/07/01 05:15:41;;;;;;;6.07;4.28;;;16.40;99.90;;;;;;5032677;28;20036;-67
2021/07/01 05:18:07;;;;;;;9.10;4.65;;;16.30;99.90;;;;;;5033173;28;20111;-66
2021/07/01 05:20:33;;;;;;;6.45;4.78;;;16.40;99.90;;;;;;5031916;28;20036;-65
2021/07/01 05:22:58;;;;;;;13.93;4.88;;;16.50;99.90;;;;;;5050816;28;20427;-68
2021/07/01 05:25:24;;;;;;;47.92;10.13;;;16.50;99.90;;;;;;5032954;28;20086;-68
2021/07/01 05:27:50;;;;;;;19.88;6.80;;;16.70;99.90;;;;;;5032159;28;20091;-68
2021/07/01 05:30:15;;;;;;;10.63;5.13;;;16.90;99.90;;;;;;5036614;28;20021;-70
2021/07/01 05:32:41;;;;;;;6.25;3.85;;;17.20;99.90;;;;;;5035451;28;20053;-67
2021/07/01 05:35:08;;;;;;;5.45;2.55;;;17.30;99.90;;;;;;5053650;28;20439;-67
2021/07/01 05:37:33;;;;;;;3.40;2.40;;;18.00;99.90;;;;;;5034840;28;20027;-66
2021/07/01 05:39:59;;;;;;;3.42;2.60;;;18.90;99.90;;;;;;5034834;28;20025;-66
2021/07/01 05:42:24;;;;;;;4.63;2.58;;;19.40;99.90;;;;;;5034999;28;20493;-67
2021/07/01 05:44:50;;;;;;;3.08;2.55;;;19.60;99.90;;;;;;5033959;28;20033;-66
2021/07/01 05:47:16;;;;;;;4.82;1.98;;;19.50;99.90;;;;;;5034686;28;20120;-67
2021/07/01 05:49:42;;;;;;;3.75;2.13;;;19.60;99.90;;;;;;5034360;28;20571;-68
2021/07/01 05:52:08;;;;;;;5.05;2.25;;;19.20;99.90;;;;;;5034171;28;20033;-70
2021/07/01 05:54:36;;;;;;;3.83;2.20;;;19.40;99.90;;;;;;5034016;28;20456;-67
2021/07/01 05:57:03;;;;;;;3.08;1.98;;;19.30;99.90;;;;;;5034407;28;20037;-68
2021/07/01 05:59:29;;;;;;;4.53;1.70;;;19.40;99.90;;;;;;5051897;28;20036;-67
2021/07/01 06:01:55;;;;;;;5.65;2.42;;;19.40;99.90;;;;;;5042591;28;20025;-68
2021/07/01 06:04:21;;;;;;;4.18;2.63;;;19.30;99.90;;;;;;5054580;28;20033;-69
2021/07/01 06:06:51;;;;;;;5.75;2.67;;;19.00;99.90;;;;;;5054530;28;20076;-68
2021/07/01 06:09:27;;;;;;;4.57;2.08;;;18.60;99.90;;;;;;5053979;28;20020;-70
2021/07/01 06:11:55;;;;;;;2.45;2.25;;;18.30;99.90;;;;;;5072761;28;20050;-69
2021/07/01 06:14:22;;;;;;;2.22;2.03;;;18.20;99.90;;;;;;5072203;28;20028;-69
2021/07/01 06:16:50;;;;;;;1.70;1.60;;;18.10;99.90;;;;;;5054180;28;20032;-68
2021/07/01 06:19:17;;;;;;;2.92;1.83;;;18.20;99.90;;;;;;5054789;28;20024;-69
2021/07/01 06:21:43;;;;;;;2.67;1.90;;;17.90;99.90;;;;;;5070159;28;20456;-72
2021/07/01 06:24:09;;;;;;;4.03;1.92;;;17.80;99.90;;;;;;5091076;28;20032;-69
2021/07/01 06:26:36;;;;;;;1.77;1.58;;;18.00;99.90;;;;;;5092544;28;20036;-69
2021/07/01 06:29:03;;;;;;;2.80;1.55;;;18.10;99.90;;;;;;5091407;28;20450;-68
2021/07/01 06:31:28;;;;;;;3.85;1.48;;;18.10;99.90;;;;;;5086284;28;20036;-73
2021/07/01 06:33:54;;;;;;;2.97;1.40;;;17.80;99.90;;;;;;5072861;28;20033;-69
2021/07/01 06:36:27;;;;;;;4.28;1.67;;;17.70;99.90;;;;;;5070913;28;20513;-70
2021/07/01 06:38:57;;;;;;;3.63;1.60;;;17.70;99.90;;;;;;5071100;28;20221;-70
2021/07/01 06:41:25;;;;;;;1.35;1.25;;;17.70;99.90;;;;;;5071678;28;20092;-69
2021/07/01 06:43:52;;;;;;;5.13;1.38;;;17.60;99.90;;;;;;5070121;28;20162;-67
2021/07/01 06:46:19;;;;;;;1.92;1.50;;;17.60;99.90;;;;;;5070530;28;20067;-70
2021/07/01 06:48:47;;;;;;;1.90;1.23;;;17.50;99.90;;;;;;5080092;28;20032;-69
2021/07/01 06:51:13;;;;;;;2.80;1.10;;;17.50;99.90;;;;;;5110750;28;20651;-70
2021/07/01 06:53:41;;;;;;;1.83;1.02;;;17.50;99.90;;;;;;5110415;28;20027;-69
2021/07/01 06:56:08;;;;;;;1.67;1.38;;;17.40;99.90;;;;;;5110548;28;20118;-69
2021/07/01 06:58:36;;;;;;;3.65;0.93;;;17.60;99.90;;;;;;5109976;28;20042;-70
2021/07/01 07:01:02;;;;;;;5.05;1.40;;;17.50;99.90;;;;;;5108703;28;20103;-68
2021/07/01 07:03:28;;;;;;;4.38;1.33;;;17.50;99.90;;;;;;5070010;28;20094;-84
2021/07/01 07:05:55;;;;;;;2.15;1.35;;;17.40;99.90;;;;;;5070046;28;20029;-72
2021/07/01 07:08:22;;;;;;;2.78;1.50;;;17.30;99.90;;;;;;5069876;28;20040;-66
2021/07/01 07:10:48;;;;;;;3.20;0.90;;;17.40;99.90;;;;;;5068905;28;20600;-68
2021/07/01 07:13:14;;;;;;;7.60;1.92;;;17.50;99.90;;;;;;5071042;28;20105;-68
2021/07/01 07:15:42;;;;;;;2.85;1.40;;;17.60;99.90;;;;;;5069654;28;20512;-74
2021/07/01 07:18:27;;;;;;;1.20;1.08;;;17.50;99.90;;;;;;5069254;28;20477;-65
2021/07/01 07:20:55;;;;;;;3.35;1.30;;;18.50;99.90;;;;;;5065443;28;20056;-67
2021/07/01 07:23:32;;;;;;;6.25;1.77;;;19.10;99.90;;;;;;5032769;28;20060;-69
2021/07/01 07:25:59;;;;;;;1.63;1.13;;;19.40;99.90;;;;;;5032187;28;20033;-67
2021/07/01 07:28:26;;;;;;;2.95;1.35;;;19.40;99.90;;;;;;5032389;28;20127;-67
2021/07/01 07:30:54;;;;;;;4.13;1.40;;;19.20;99.90;;;;;;5032041;28;20037;-72
2021/07/01 07:33:24;;;;;;;4.60;1.77;;;19.50;99.90;;;;;;5032859;28;20051;-66
2021/07/01 07:35:50;;;;;;;1.93;1.40;;;19.40;99.90;;;;;;5034565;28;20032;-64
2021/07/01 07:38:18;;;;;;;3.40;2.00;;;19.50;99.90;;;;;;5042890;28;20039;-68
2021/07/01 07:40:44;;;;;;;5.22;2.22;;;19.40;99.90;;;;;;5037861;28;20024;-67
2021/07/01 07:43:13;;;;;;;6.95;1.88;;;19.30;99.90;;;;;;5058242;28;20024;-67
2021/07/01 07:45:40;;;;;;;2.67;1.73;;;19.40;99.90;;;;;;5052146;28;20028;-67
2021/07/01 07:48:06;;;;;;;4.38;1.83;;;19.70;99.90;;;;;;5070246;28;20042;-66
2021/07/01 07:50:37;;;;;;;2.90;1.80;;;20.00;99.90;;;;;;5051491;28;20032;-74
2021/07/01 07:53:05;;;;;;;1.70;1.38;;;20.00;99.90;;;;;;5051907;28;20124;-67
2021/07/01 07:55:33;;;;;;;2.35;1.42;;;20.10;99.90;;;;;;5051153;28;20044;-75
2021/07/01 07:58:04;;;;;;;3.85;1.70;;;20.10;99.90;;;;;;5048378;28;20584;-68
2021/07/01 08:00:29;;;;;;;1.30;1.20;;;19.90;99.90;;;;;;5031440;28;20116;-76
2021/07/01 08:03:06;;;;;;;1.98;1.45;;;20.10;99.90;;;;;;5031406;28;20119;-68
2021/07/01 08:05:33;;;;;;;3.03;1.35;;;20.00;99.90;;;;;;5047172;28;20566;-74
2021/07/01 08:08:00;;;;;;;3.35;1.58;;;20.20;99.90;;;;;;5049412;28;20035;-64
2021/07/01 08:10:30;;;;;;;5.15;2.40;;;20.00;99.90;;;;;;5031498;28;20135;-65
2021/07/01 08:13:03;;;;;;;3.28;1.40;;;20.10;99.90;;;;;;5030758;28;20494;-68
2021/07/01 08:15:31;;;;;;;2.20;1.42;;;20.20;99.90;;;;;;5049936;28;20542;-73
2021/07/01 08:17:57;;;;;;;3.13;1.73;;;20.20;99.90;;;;;;5040153;28;20360;-66
2021/07/01 08:20:24;;;;;;;3.80;2.00;;;20.40;99.90;;;;;;5055227;28;20510;-68
2021/07/01 08:22:54;;;;;;;8.15;2.63;;;20.40;99.90;;;;;;5077019;28;20055;-67
2021/07/01 08:25:22;;;;;;;2.22;1.83;;;20.10;99.90;;;;;;5078624;28;20465;-66
2021/07/01 08:27:49;;;;;;;3.92;3.00;;;20.30;99.90;;;;;;5073185;28;20756;-67
2021/07/01 08:30:18;;;;;;;4.63;2.80;;;19.90;99.90;;;;;;5074817;28;20414;-67
2021/07/01 08:32:47;;;;;;;2.75;2.25;;;19.80;99.90;;;;;;5071553;28;20035;-74
2021/07/01 08:35:15;;;;;;;4.45;3.13;;;19.80;99.90;;;;;;5085283;28;20495;-68
2021/07/01 08:37:45;;;;;;;3.38;2.67;;;19.90;99.90;;;;;;5088192;28;20024;-68
2021/07/01 08:40:14;;;;;;;2.97;2.63;;;19.60;99.90;;;;;;5089359;28;20058;-71
2021/07/01 08:42:40;;;;;;;11.93;4.30;;;19.30;99.90;;;;;;5087060;28;20081;-71
2021/07/01 08:45:09;;;;;;;8.75;3.75;;;19.00;99.90;;;;;;5088213;28;20028;-68
2021/07/01 08:47:40;;;;;;;5.30;2.72;;;18.70;99.90;;;;;;5086738;28;20070;-70
2021/07/01 08:50:17;;;;;;;3.70;2.63;;;18.50;99.90;;;;;;5087789;28;20123;-68
2021/07/01 08:53:09;;;;;;;4.70;2.50;;;18.40;99.90;;;;;;5082921;28;20039;-70
2021/07/01 08:55:40;;;;;;;12.63;4.00;;;18.30;99.90;;;;;;5087707;28;20436;-55
2021/07/01 08:58:09;;;;;;;6.00;2.08;;;18.60;99.90;;;;;;5088102;28;20059;-58
2021/07/01 09:00:40;;;;;;;4.07;1.50;;;18.70;99.90;;;;;;5090708;28;20055;-63
2021/07/01 09:03:09;;;;;;;3.13;2.03;;;18.80;99.90;;;;;;5072894;28;20420;-54
2021/07/01 09:05:37;;;;;;;2.63;2.05;;;19.20;99.90;;;;;;5070971;28;20020;-54
2021/07/01 09:08:09;;;;;;;2.80;1.65;;;19.20;99.90;;;;;;5072844;28;20071;-55
2021/07/01 09:10:36;;;;;;;3.03;1.48;;;19.40;99.90;;;;;;5072329;28;20067;-54
2021/07/01 09:13:05;;;;;;;5.10;1.88;;;19.50;99.90;;;;;;5073146;28;20576;-55
2021/07/01 09:15:31;;;;;;;4.00;1.40;;;19.60;99.90;;;;;;5072595;28;20050;-55
2021/07/01 09:17:58;;;;;;;3.78;1.45;;;19.30;99.90;;;;;;5073248;28;20032;-55
2021/07/01 09:20:28;;;;;;;3.22;1.42;;;19.30;99.90;;;;;;5071235;28;20043;-55
2021/07/01 09:22:56;;;;;;;2.90;1.58;;;19.30;99.90;;;;;;5052285;28;20449;-56
2021/07/01 09:25:23;;;;;;;2.25;1.15;;;19.40;99.90;;;;;;5035206;28;20065;-58
2021/07/01 09:27:50;;;;;;;3.75;0.90;;;19.50;99.90;;;;;;5034162;28;20221;-55
2021/07/01 09:30:19;;;;;;;1.25;0.90;;;19.50;99.90;;;;;;5034254;28;20033;-54
2021/07/01 09:32:46;;;;;;;1.20;1.10;;;19.40;99.90;;;;;;5033964;28;20083;-55
2021/07/01 09:35:14;;;;;;;2.00;1.10;;;19.50;99.90;;;;;;5034264;28;20041;-57
2021/07/01 09:37:42;;;;;;;1.60;0.90;;;19.70;99.90;;;;;;5034013;28;20079;-61
2021/07/01 09:40:12;;;;;;;1.08;0.95;;;19.70;99.90;;;;;;5034524;28;20025;-55
2021/07/01 09:42:39;;;;;;;3.90;1.25;;;19.60;99.90;;;;;;5052591;28;20166;-54
2021/07/01 09:45:09;;;;;;;2.08;0.70;;;19.50;99.90;;;;;;5034311;28;20029;-56
2021/07/01 09:47:38;;;;;;;7.30;0.95;;;19.40;99.90;;;;;;5033730;28;20033;-56
2021/07/01 09:50:05;;;;;;;2.15;1.08;;;19.60;99.90;;;;;;5034240;28;20048;-55
2021/07/01 09:52:35;;;;;;;5.32;1.30;;;19.70;99.90;;;;;;5033484;28;20040;-56
2021/07/01 09:55:04;;;;;;;0.93;0.80;;;19.80;99.90;;;;;;5052135;28;20099;-56
2021/07/01 09:57:36;;;;;;;0.98;0.73;;;19.80;99.90;;;;;;5052025;28;20126;-56
2021/07/01 10:00:09;;;;;;;0.90;0.50;;;19.80;99.90;;;;;;5034134;28;20036;-63
2021/07/01 10:02:35;;;;;;;2.55;0.65;;;19.80;99.90;;;;;;5033280;28;20033;-55
2021/07/01 10:05:03;;;;;;;0.60;0.38;;;19.70;99.90;;;;;;5034392;28;20051;-55
2021/07/01 10:07:29;;;;;;;1.30;1.00;;;19.90;99.90;;;;;;5052189;28;20033;-56
2021/07/01 10:09:57;;;;;;;1.30;0.80;;;19.90;99.90;;;;;;5034151;28;20469;-54
2021/07/01 10:12:28;;;;;;;0.75;0.43;;;19.90;99.90;;;;;;5034358;28;20036;-54
2021/07/01 10:15:02;;;;;;;0.60;0.38;;;19.60;99.90;;;;;;5033261;28;20426;-57
2021/07/01 10:17:30;;;;;;;1.75;0.43;;;19.50;99.90;;;;;;5034272;28;20442;-55
2021/07/01 10:20:10;;;;;;;3.17;0.30;;;19.50;99.90;;;;;;5033867;28;20075;-55
2021/07/01 10:22:40;;;;;;;0.40;0.25;;;19.20;99.90;;;;;;5064050;28;20110;-54
2021/07/01 10:25:07;;;;;;;2.53;0.57;;;19.30;99.90;;;;;;5070068;28;20040;-55
2021/07/01 10:27:41;;;;;;;1.17;0.20;;;19.40;99.90;;;;;;5071228;28;20028;-55
2021/07/01 10:30:23;;;;;;;1.02;0.35;;;19.40;99.90;;;;;;5070154;28;20074;-56
2021/07/01 10:32:51;;;;;;;1.13;0.70;;;19.40;99.90;;;;;;5069848;28;20195;-55
2021/07/01 10:35:22;;;;;;;1.35;0.60;;;19.40;99.90;;;;;;5070721;28;20036;-54
2021/07/01 10:38:21;;;;;;;1.88;0.60;;;19.50;99.90;;;;;;5070882;28;20025;-70
2021/07/01 10:40:50;;;;;;;2.28;0.40;;;19.50;99.90;;;;;;5028552;28;20041;-70
2021/07/01 10:43:18;;;;;;;1.95;1.00;;;19.30;99.90;;;;;;5072744;28;20373;-71
2021/07/01 10:45:57;;;;;;;5.90;0.88;;;19.00;99.90;;;;;;5069975;28;20042;-70
2021/07/01 10:48:24;;;;;;;3.75;0.52;;;18.90;99.90;;;;;;5071545;28;20032;-72
2021/07/01 10:50:53;;;;;;;3.25;1.08;;;18.70;99.90;;;;;;5071059;28;20040;-70
2021/07/01 10:53:39;;;;;;;1.30;0.90;;;18.50;99.90;;;;;;5071212;28;20040;-70
2021/07/01 10:56:09;;;;;;;4.00;1.45;;;18.40;99.90;;;;;;5070822;28;20483;-70
2021/07/01 10:58:36;;;;;;;1.95;1.50;;;18.50;99.90;;;;;;5071969;28;20027;-71
2021/07/01 11:01:03;;;;;;;2.33;1.63;;;18.40;99.90;;;;;;5072221;28;20227;-70
2021/07/01 11:03:31;;;;;;;2.25;2.03;;;18.50;99.90;;;;;;5072266;28;20036;-70
2021/07/01 11:05:59;;;;;;;3.88;2.28;;;18.40;99.90;;;;;;5070671;28;20033;-70
2021/07/01 11:08:35;;;;;;;2.47;2.00;;;18.40;99.90;;;;;;5070879;28;20039;-70
2021/07/01 11:11:20;;;;;;;4.95;3.30;;;18.60;99.90;;;;;;5070320;28;20035;-71
2021/07/01 11:14:09;;;;;;;3.30;2.40;;;18.50;99.90;;;;;;5070739;28;20104;-70
2021/07/01 11:16:44;;;;;;;2.80;2.47;;;18.60;99.90;;;;;;5087807;28;20031;-69
2021/07/01 11:19:21;;;;;;;2.38;2.15;;;18.50;99.90;;;;;;5090579;28;20027;-69
2021/07/01 11:21:52;;;;;;;4.35;2.55;;;18.50;99.90;;;;;;5089811;28;20388;-70
2021/07/01 11:24:23;;;;;;;5.05;2.72;;;18.60;99.90;;;;;;5089938;28;20039;-70
2021/07/01 11:26:54;;;;;;;9.07;2.97;;;18.70;99.90;;;;;;5090976;28;20028;-70
2021/07/01 11:29:37;;;;;;;3.53;3.03;;;18.70;99.90;;;;;;5090054;28;20431;-70
2021/07/01 11:32:27;;;;;;;6.47;3.28;;;18.80;99.90;;;;;;5090494;28;20476;-70
2021/07/01 11:34:55;;;;;;;6.00;3.30;;;18.70;99.90;;;;;;5089800;28;20028;-69
2021/07/01 11:37:42;;;;;;;9.25;3.80;;;18.70;99.90;;;;;;5091175;28;20028;-70
2021/07/01 11:40:12;;;;;;;4.72;3.45;;;18.50;99.90;;;;;;5090718;28;20111;-69
2021/07/01 11:42:39;;;;;;;5.85;3.25;;;18.60;99.90;;;;;;5089164;28;20081;-69
2021/07/01 11:45:06;;;;;;;5.88;3.90;;;18.40;99.90;;;;;;5090609;28;20100;-69
2021/07/01 11:47:34;;;;;;;4.32;3.38;;;18.30;99.90;;;;;;5091780;28;20495;-80
2021/07/01 11:50:03;;;;;;;5.15;3.42;;;18.20;99.90;;;;;;5090231;28;20024;-69
2021/07/01 11:52:32;;;;;;;8.63;4.10;;;18.10;99.90;;;;;;5090203;28;20484;-70
2021/07/01 11:55:02;;;;;;;7.70;3.05;;;18.20;99.90;;;;;;5089620;28;20039;-69
2021/07/01 11:57:28;;;;;;;8.30;4.80;;;18.20;99.90;;;;;;5090604;28;20472;-70
2021/07/01 11:59:55;;;;;;;8.43;4.05;;;18.40;99.90;;;;;;5090170;28;20085;-71
2021/07/01 12:02:21;;;;;;;8.65;3.97;;;18.30;99.90;;;;;;5090683;28;20085;-70
2021/07/01 12:04:48;;;;;;;7.13;3.80;;;18.50;99.90;;;;;;5089891;28;20380;-70
2021/07/01 12:07:28;;;;;;;10.13;4.40;;;18.60;99.90;;;;;;5089844;28;20085;-69
2021/07/01 12:09:56;;;;;;;5.20;3.90;;;18.60;99.90;;;;;;5089466;28;20162;-70
2021/07/01 12:12:28;;;;;;;6.85;3.78;;;18.60;99.90;;;;;;5089672;28;20085;-68
2021/07/01 12:15:09;;;;;;;10.20;3.90;;;18.60;99.90;;;;;;5090855;28;20126;-69
2021/07/01 12:18:03;;;;;;;5.18;3.38;;;18.60;99.90;;;;;;5089958;28;20025;-81
2021/07/01 12:20:54;;;;;;;7.20;3.53;;;18.60;99.90;;;;;;5090128;28;20256;-70
2021/07/01 12:23:22;;;;;;;6.45;2.22;;;18.60;99.90;;;;;;5089852;28;20048;-51
2021/07/01 12:25:53;;;;;;;2.88;2.58;;;19.20;99.90;;;;;;5069469;28;20105;-55
2021/07/01 12:28:27;;;;;;;4.15;3.00;;;20.10;99.90;;;;;;5070410;28;20202;-52
2021/07/01 12:31:03;;;;;;;6.85;3.08;;;20.40;99.90;;;;;;5075275;28;20119;-52
2021/07/01 12:33:37;;;;;;;3.17;2.75;;;20.50;99.40;;;;;;5089884;28;20059;-54
2021/07/01 12:36:07;;;;;;;4.72;3.13;;;20.30;99.90;;;;;;5090923;28;20122;-53
2021/07/01 12:38:34;;;;;;;3.80;2.88;;;20.30;99.90;;;;;;5080925;28;20108;-51
2021/07/01 12:41:03;;;;;;;3.80;2.97;;;20.30;99.90;;;;;;5085915;28;20119;-53
2021/07/01 12:43:47;;;;;;;3.35;2.58;;;20.20;99.90;;;;;;5068284;28;20517;-52
2021/07/01 12:46:48;;;;;;;5.43;3.13;;;20.10;99.90;;;;;;5070152;28;20078;-53
2021/07/01 12:49:17;;;;;;;4.65;3.60;;;20.10;99.90;;;;;;5069528;28;20029;-52
2021/07/01 12:51:44;;;;;;;5.18;3.08;;;20.10;99.90;;;;;;5068256;28;20036;-53